createdAt,value
2017-10-12T00:01:05.674Z,7.51
2017-10-12T00:03:33.449Z,7.56
2017-10-12T00:06:01.112Z,7.35
2017-10-12T00:08:29.229Z,7.11
2017-10-12T00:10:56.923Z,7.26
2017-10-12T00:13:24.629Z,7.47
2017-10-12T00:15:52.403Z,7.45
2017-10-12T00:18:20.089Z,7.32
2017-10-12T00:20:47.850Z,7.45
2017-10-12T00:23:15.894Z,7.43
2017-10-12T00:25:43.596Z,7.43
2017-10-12T00:28:11.675Z,7.32
2017-10-12T00:30:39.381Z,7.42
2017-10-12T00:33:07.100Z,7.33
2017-10-12T00:35:34.873Z,7.39
2017-10-12T00:38:02.582Z,7.02
2017-10-12T00:40:30.329Z,7.24
2017-10-12T00:42:58.056Z,7.13
2017-10-12T00:45:25.872Z,7.00
2017-10-12T00:47:53.606Z,7.21
2017-10-12T00:50:21.313Z,7.06
2017-10-12T00:52:49.082Z,7.04
2017-10-12T00:55:16.810Z,7.00
2017-10-12T00:57:44.500Z,7.13
2017-10-12T01:00:12.340Z,7.13
2017-10-12T01:02:41.477Z,7.05
2017-10-12T01:05:09.280Z,7.10
2017-10-12T01:07:37.100Z,6.99
2017-10-12T01:10:04.862Z,6.87
2017-10-12T01:12:32.635Z,7.08
2017-10-12T01:15:00.333Z,7.14
2017-10-12T01:17:28.021Z,7.19
2017-10-12T01:19:55.852Z,7.22
2017-10-12T01:22:23.684Z,7.26
2017-10-12T01:24:51.533Z,7.12
2017-10-12T01:27:19.311Z,7.25
2017-10-12T01:29:47.452Z,7.36
2017-10-12T01:32:15.495Z,7.42
2017-10-12T01:34:43.217Z,7.38
2017-10-12T01:37:11.015Z,7.28
2017-10-12T01:39:38.806Z,7.26
2017-10-12T01:42:07.204Z,7.31
2017-10-12T01:44:34.919Z,7.42
2017-10-12T01:47:02.678Z,7.53
2017-10-12T01:49:30.420Z,7.46
2017-10-12T01:51:58.135Z,7.57
2017-10-12T01:54:25.900Z,7.57
2017-10-12T01:56:53.722Z,7.65
2017-10-12T01:59:21.421Z,7.70
2017-10-12T02:01:49.157Z,7.78
2017-10-12T02:04:16.955Z,7.58
2017-10-12T02:06:44.731Z,7.51
2017-10-12T02:09:12.446Z,7.56
2017-10-12T02:11:40.282Z,7.68
2017-10-12T02:14:08.012Z,7.70
2017-10-12T02:16:35.703Z,7.83
2017-10-12T02:19:03.510Z,7.94
2017-10-12T02:21:31.250Z,7.94
2017-10-12T02:23:59.080Z,7.91
2017-10-12T02:26:26.916Z,8.00
2017-10-12T02:28:54.756Z,8.00
2017-10-12T02:31:22.482Z,8.05
2017-10-12T02:33:50.359Z,8.11
2017-10-12T02:36:19.204Z,8.04
2017-10-12T02:38:46.955Z,8.04
2017-10-12T02:41:14.718Z,7.98
2017-10-12T02:43:42.506Z,8.00
2017-10-12T02:46:10.359Z,8.01
2017-10-12T02:48:38.055Z,7.63
2017-10-12T02:51:05.801Z,7.66
2017-10-12T02:53:33.579Z,7.65
2017-10-12T02:56:01.274Z,7.59
2017-10-12T02:58:28.975Z,7.52
2017-10-12T03:00:57.136Z,7.66
2017-10-12T03:03:24.868Z,7.61
2017-10-12T03:05:52.630Z,7.09
2017-10-12T03:08:20.323Z,7.25
2017-10-12T03:10:48.063Z,7.32
2017-10-12T03:13:15.752Z,7.15
2017-10-12T03:15:43.476Z,7.37
2017-10-12T03:18:11.205Z,7.34
2017-10-12T03:20:38.983Z,7.35
2017-10-12T03:23:06.758Z,7.37
2017-10-12T03:25:34.502Z,7.34
2017-10-12T03:28:02.221Z,7.47
2017-10-12T03:30:29.933Z,7.47
2017-10-12T03:32:57.621Z,7.33
2017-10-12T03:35:25.429Z,7.34
2017-10-12T03:37:53.172Z,7.49
2017-10-12T03:40:21.156Z,7.42
2017-10-12T03:42:48.933Z,7.41
2017-10-12T03:45:16.650Z,7.50
2017-10-12T03:47:44.391Z,7.56
2017-10-12T03:50:12.158Z,7.64
2017-10-12T03:52:39.849Z,7.63
2017-10-12T03:55:07.594Z,7.46
2017-10-12T03:57:35.932Z,7.48
2017-10-12T04:00:03.682Z,7.62
2017-10-12T04:02:31.418Z,7.60
2017-10-12T04:04:59.159Z,7.66
2017-10-12T04:07:26.844Z,7.65
2017-10-12T04:09:54.638Z,7.63
2017-10-12T04:12:22.325Z,7.58
2017-10-12T04:14:50.491Z,7.62
2017-10-12T04:17:18.827Z,7.58
2017-10-12T04:19:46.582Z,7.45
2017-10-12T04:22:14.258Z,7.37
2017-10-12T04:24:42.017Z,7.27
2017-10-12T04:27:09.767Z,7.17
2017-10-12T04:29:37.462Z,6.89
2017-10-12T04:32:05.170Z,6.85
2017-10-12T04:34:32.919Z,6.82
2017-10-12T04:37:00.634Z,6.92
2017-10-12T04:39:28.442Z,6.70
2017-10-12T04:41:56.132Z,6.86
2017-10-12T04:44:23.881Z,6.82
2017-10-12T04:46:51.647Z,7.03
2017-10-12T04:49:19.347Z,7.05
2017-10-12T04:51:47.067Z,7.06
2017-10-12T04:54:14.801Z,6.92
2017-10-12T04:56:42.564Z,6.96
2017-10-12T04:59:10.337Z,7.09
2017-10-12T05:01:38.096Z,6.96
2017-10-12T05:04:05.802Z,6.94
2017-10-12T05:06:33.481Z,6.91
2017-10-12T05:09:01.350Z,6.76
2017-10-12T05:11:29.054Z,6.87
2017-10-12T05:13:56.780Z,7.07
2017-10-12T05:16:24.524Z,7.15
2017-10-12T05:18:52.232Z,7.23
2017-10-12T05:21:20.037Z,7.23
2017-10-12T05:23:47.778Z,7.10
2017-10-12T05:26:15.551Z,7.09
2017-10-12T05:28:43.236Z,6.78
2017-10-12T05:31:10.928Z,6.93
2017-10-12T05:33:38.650Z,7.17
2017-10-12T05:36:06.382Z,6.91
2017-10-12T05:38:34.191Z,6.98
2017-10-12T05:41:02.017Z,7.07
2017-10-12T05:43:29.783Z,7.19
2017-10-12T05:45:57.548Z,7.21
2017-10-12T05:48:25.334Z,7.41
2017-10-12T05:50:53.022Z,7.36
2017-10-12T05:53:20.726Z,7.28
2017-10-12T05:55:48.466Z,7.13
2017-10-12T05:58:16.293Z,7.11
2017-10-12T06:00:43.960Z,7.11
2017-10-12T06:03:11.658Z,7.02
2017-10-12T06:05:39.530Z,6.99
2017-10-12T06:08:07.256Z,7.16
2017-10-12T06:10:35.049Z,7.14
2017-10-12T06:13:02.920Z,7.12
2017-10-12T06:15:30.695Z,7.29
2017-10-12T06:17:58.407Z,7.41
2017-10-12T06:20:26.267Z,7.43
2017-10-12T06:22:54.168Z,7.31
2017-10-12T06:25:21.909Z,7.15
2017-10-12T06:27:49.660Z,7.09
2017-10-12T06:30:19.515Z,7.24
2017-10-12T06:32:48.252Z,7.45
2017-10-12T06:35:15.998Z,7.63
2017-10-12T06:37:43.786Z,7.47
2017-10-12T06:40:11.468Z,7.53
2017-10-12T06:42:39.304Z,7.62
2017-10-12T06:45:07.138Z,7.54
2017-10-12T06:47:34.838Z,7.43
2017-10-12T06:50:02.627Z,7.73
2017-10-12T06:52:30.430Z,7.93
2017-10-12T06:54:58.217Z,7.82
2017-10-12T06:57:26.138Z,7.71
2017-10-12T06:59:53.912Z,7.71
2017-10-12T07:02:21.637Z,7.87
2017-10-12T07:04:49.404Z,7.89
2017-10-12T07:07:17.078Z,7.73
2017-10-12T07:09:44.920Z,8.00
2017-10-12T07:12:12.680Z,7.82
2017-10-12T07:14:40.439Z,7.76
2017-10-12T07:17:08.924Z,7.87
2017-10-12T07:19:36.690Z,7.78
2017-10-12T07:22:04.450Z,7.89
2017-10-12T07:24:32.144Z,8.03
2017-10-12T07:27:00.793Z,8.03
2017-10-12T07:29:28.515Z,8.17
2017-10-12T07:31:56.485Z,8.16
2017-10-12T07:34:24.195Z,8.30
2017-10-12T07:36:51.884Z,8.71
2017-10-12T07:39:19.653Z,9.32
2017-10-12T07:41:47.382Z,10.05
2017-10-12T07:44:15.249Z,10.44
2017-10-12T07:46:43.014Z,10.74
2017-10-12T07:49:10.787Z,9.90
2017-10-12T07:51:39.178Z,9.61
2017-10-12T07:54:06.910Z,9.36
2017-10-12T07:56:34.690Z,9.49
2017-10-12T07:59:02.419Z,9.76
2017-10-12T08:01:30.229Z,9.54
2017-10-12T08:03:57.969Z,9.36
2017-10-12T08:06:25.821Z,9.61
2017-10-12T08:08:53.563Z,9.73
2017-10-12T08:11:21.309Z,9.51
2017-10-12T08:13:49.168Z,10.26
2017-10-12T08:16:16.995Z,10.67
2017-10-12T08:18:44.697Z,11.38
2017-10-12T08:21:12.413Z,11.69
2017-10-12T08:23:40.186Z,12.63
2017-10-12T08:26:07.951Z,12.54
2017-10-12T08:28:35.679Z,12.32
2017-10-12T08:31:03.429Z,13.54
2017-10-12T08:33:31.119Z,13.75
2017-10-12T08:35:58.806Z,13.11
2017-10-12T08:38:26.572Z,13.79
2017-10-12T08:40:54.293Z,12.96
2017-10-12T08:43:22.000Z,13.51
2017-10-12T08:45:49.903Z,13.25
2017-10-12T08:48:17.653Z,13.44
2017-10-12T08:50:45.382Z,13.41
2017-10-12T08:53:13.124Z,13.71
2017-10-12T08:55:40.897Z,14.00
2017-10-12T08:58:08.623Z,13.87
2017-10-12T09:00:36.430Z,13.74
2017-10-12T09:03:04.191Z,13.82
2017-10-12T09:05:31.880Z,14.76
2017-10-12T09:07:59.616Z,14.86
2017-10-12T09:10:27.409Z,14.56
2017-10-12T09:12:55.094Z,15.33
2017-10-12T09:15:22.876Z,15.69
2017-10-12T09:17:50.724Z,15.13
2017-10-12T09:20:18.468Z,15.43
2017-10-12T09:22:46.539Z,15.71
2017-10-12T09:25:14.385Z,16.38
2017-10-12T09:27:42.127Z,16.89
2017-10-12T09:30:09.832Z,16.71
2017-10-12T09:32:37.638Z,16.64
2017-10-12T09:35:05.503Z,16.52
2017-10-12T09:37:33.283Z,16.01
2017-10-12T09:40:01.003Z,16.17
2017-10-12T09:42:28.894Z,16.46
2017-10-12T09:44:56.616Z,16.15
2017-10-12T09:47:24.359Z,17.49
2017-10-12T09:49:52.163Z,18.01
2017-10-12T09:52:19.940Z,18.12
2017-10-12T09:54:47.697Z,17.86
2017-10-12T09:57:15.550Z,15.92
2017-10-12T09:59:43.405Z,17.38
2017-10-12T10:02:11.144Z,16.97
2017-10-12T10:04:38.820Z,17.42
2017-10-12T10:07:06.601Z,16.76
2017-10-12T10:09:34.361Z,17.09
2017-10-12T10:12:02.084Z,17.90
2017-10-12T10:14:29.821Z,18.06
2017-10-12T10:16:57.498Z,17.09
2017-10-12T10:19:25.198Z,17.47
2017-10-12T10:21:52.959Z,18.11
2017-10-12T10:24:20.662Z,18.61
2017-10-12T10:26:48.538Z,18.33
2017-10-12T10:29:21.926Z,17.43
2017-10-12T10:31:49.872Z,17.66
2017-10-12T10:34:17.576Z,18.21
2017-10-12T10:36:45.285Z,18.68
2017-10-12T10:39:13.033Z,17.93
2017-10-12T10:41:40.795Z,17.91
2017-10-12T10:44:08.532Z,18.43
2017-10-12T10:46:36.455Z,17.90
2017-10-12T10:49:04.200Z,17.91
2017-10-12T10:51:32.022Z,17.78
2017-10-12T10:53:59.726Z,18.42
2017-10-12T10:56:27.555Z,18.62
2017-10-12T10:58:55.428Z,18.61
2017-10-12T11:01:23.244Z,19.06
2017-10-12T11:03:50.942Z,18.76
2017-10-12T11:06:18.677Z,18.94
2017-10-12T11:08:46.374Z,18.46
2017-10-12T11:11:14.144Z,18.38
2017-10-12T11:13:41.899Z,18.63
2017-10-12T11:16:09.641Z,18.82
2017-10-12T11:18:37.363Z,19.32
2017-10-12T11:21:05.310Z,19.19
2017-10-12T11:23:33.087Z,19.38
2017-10-12T11:26:01.029Z,20.03
2017-10-12T11:28:29.563Z,19.42
2017-10-12T11:30:58.217Z,19.46
2017-10-12T11:33:27.905Z,19.78
2017-10-12T11:35:55.642Z,19.89
2017-10-12T11:38:24.249Z,20.12
2017-10-12T11:40:52.035Z,20.36
2017-10-12T11:43:19.785Z,20.68
2017-10-12T11:45:47.561Z,20.80
2017-10-12T11:48:15.376Z,20.76
2017-10-12T11:50:43.186Z,20.67
2017-10-12T11:53:11.696Z,21.13
2017-10-12T11:55:39.535Z,21.65
2017-10-12T11:58:07.436Z,21.39
2017-10-12T12:00:36.323Z,21.48
2017-10-12T12:03:05.261Z,21.38
2017-10-12T12:05:32.988Z,21.48
2017-10-12T12:08:00.817Z,21.77
2017-10-12T12:10:28.688Z,21.87
2017-10-12T12:12:59.286Z,21.91
2017-10-12T12:15:27.035Z,21.96
2017-10-12T12:17:54.840Z,21.86
2017-10-12T12:20:22.603Z,21.63
2017-10-12T12:22:51.346Z,21.53
2017-10-12T12:25:19.195Z,21.51
2017-10-12T12:27:46.971Z,21.49
2017-10-12T12:30:14.909Z,21.54
2017-10-12T12:32:42.663Z,21.39
2017-10-12T12:35:10.441Z,21.41
2017-10-12T12:37:38.224Z,21.50
2017-10-12T12:40:05.978Z,21.24
2017-10-12T12:42:33.755Z,21.27
2017-10-12T12:45:01.490Z,21.32
2017-10-12T12:47:29.421Z,21.91
2017-10-12T12:49:57.121Z,21.67
2017-10-12T12:52:24.981Z,21.74
2017-10-12T12:54:52.725Z,21.91
2017-10-12T12:57:20.474Z,21.38
2017-10-12T12:59:48.243Z,21.41
2017-10-12T13:02:16.266Z,21.10
2017-10-12T13:04:44.041Z,20.97
2017-10-12T13:07:12.595Z,21.18
2017-10-12T13:09:40.368Z,21.33
2017-10-12T13:12:08.093Z,21.41
2017-10-12T13:14:35.851Z,21.24
2017-10-12T13:17:03.595Z,21.41
2017-10-12T13:19:31.335Z,21.57
2017-10-12T13:21:59.144Z,21.60
2017-10-12T13:24:26.849Z,21.66
2017-10-12T13:26:54.590Z,21.74
2017-10-12T13:29:22.346Z,21.66
2017-10-12T13:31:50.094Z,21.99
2017-10-12T13:34:17.886Z,22.07
2017-10-12T13:36:45.608Z,22.14
2017-10-12T13:39:14.267Z,21.92
2017-10-12T13:41:42.078Z,21.84
2017-10-12T13:44:10.105Z,21.52
2017-10-12T13:46:38.178Z,21.54
2017-10-12T13:49:05.987Z,21.30
2017-10-12T13:51:33.784Z,21.22
2017-10-12T13:54:01.593Z,20.94
2017-10-12T13:56:29.345Z,20.87
2017-10-12T13:58:57.133Z,20.93
2017-10-12T14:01:24.990Z,21.28
2017-10-12T14:03:52.708Z,21.42
2017-10-12T14:06:20.488Z,21.52
2017-10-12T14:08:48.281Z,21.08
2017-10-12T14:11:16.832Z,21.05
2017-10-12T14:13:45.033Z,20.63
2017-10-12T14:16:13.674Z,20.51
2017-10-12T14:18:41.504Z,20.38
2017-10-12T14:21:09.262Z,20.50
2017-10-12T14:23:37.194Z,20.32
2017-10-12T14:26:04.967Z,20.11
2017-10-12T14:28:33.013Z,20.24
2017-10-12T14:31:00.875Z,20.08
2017-10-12T14:33:28.708Z,19.94
2017-10-12T14:35:56.941Z,19.91
2017-10-12T14:38:24.695Z,19.92
2017-10-12T14:40:52.409Z,19.87
2017-10-12T14:43:20.279Z,20.00
2017-10-12T14:45:48.461Z,20.02
2017-10-12T14:48:16.219Z,19.88
2017-10-12T14:50:43.961Z,19.90
2017-10-12T14:53:11.697Z,19.62
2017-10-12T14:55:39.414Z,19.65
2017-10-12T14:58:07.169Z,19.68
2017-10-12T15:00:34.883Z,19.64
2017-10-12T15:03:02.814Z,19.45
2017-10-12T15:05:30.926Z,19.49
2017-10-12T15:07:58.740Z,19.46
2017-10-12T15:10:26.609Z,19.30
2017-10-12T15:12:55.837Z,19.23
2017-10-12T15:15:23.600Z,19.27
2017-10-12T15:17:52.027Z,19.42
2017-10-12T15:20:19.834Z,19.27
2017-10-12T15:22:47.763Z,19.31
2017-10-12T15:25:15.539Z,19.10
2017-10-12T15:27:43.303Z,18.92
2017-10-12T15:30:11.167Z,18.86
2017-10-12T15:32:38.919Z,18.70
2017-10-12T15:35:06.772Z,18.41
2017-10-12T15:37:34.499Z,18.16
2017-10-12T15:40:02.268Z,18.17
2017-10-12T15:42:30.009Z,17.89
2017-10-12T15:44:57.777Z,17.83
2017-10-12T15:47:25.667Z,17.68
2017-10-12T15:49:53.466Z,17.44
2017-10-12T15:52:21.230Z,17.45
2017-10-12T15:54:50.014Z,17.45
2017-10-12T15:57:17.737Z,17.50
2017-10-12T15:59:45.498Z,17.54
2017-10-12T16:02:13.281Z,17.62
2017-10-12T16:04:41.010Z,17.71
2017-10-12T16:07:08.785Z,17.72
2017-10-12T16:09:36.600Z,17.51
2017-10-12T16:12:04.341Z,17.44
2017-10-12T16:14:32.174Z,17.45
2017-10-12T16:16:59.899Z,17.20
2017-10-12T16:19:27.595Z,17.18
2017-10-12T16:21:55.436Z,17.09
2017-10-12T16:24:23.420Z,16.77
2017-10-12T16:26:51.215Z,16.76
2017-10-12T16:29:19.123Z,16.64
2017-10-12T16:31:46.839Z,16.31
2017-10-12T16:34:14.616Z,16.32
2017-10-12T16:36:42.374Z,16.36
2017-10-12T16:39:10.109Z,16.00
2017-10-12T16:41:45.496Z,15.96
2017-10-12T16:44:13.367Z,15.94
2017-10-12T16:46:41.151Z,15.84
2017-10-12T16:49:09.014Z,16.01
2017-10-12T16:51:36.818Z,15.72
2017-10-12T16:54:05.073Z,15.69
2017-10-12T16:56:32.849Z,15.73
2017-10-12T16:59:00.560Z,15.63
2017-10-12T17:01:28.365Z,16.30
2017-10-12T17:03:56.113Z,16.43
2017-10-12T17:06:23.883Z,16.68
2017-10-12T17:08:51.807Z,16.73
2017-10-12T17:11:19.692Z,16.48
2017-10-12T17:13:48.593Z,16.55
2017-10-12T17:16:16.331Z,16.74
2017-10-12T17:18:44.084Z,16.58
2017-10-12T17:21:11.877Z,16.32
2017-10-12T17:26:07.399Z,16.60
2017-10-12T17:28:35.171Z,16.67
2017-10-12T17:31:03.048Z,16.62
2017-10-12T17:33:30.861Z,16.69
2017-10-12T17:35:58.659Z,16.08
2017-10-12T17:38:26.492Z,15.65
2017-10-12T17:40:54.730Z,16.12
2017-10-12T17:43:22.607Z,16.41
2017-10-12T17:45:50.304Z,16.64
2017-10-12T17:48:18.006Z,16.69
2017-10-12T17:50:45.754Z,16.70
2017-10-12T17:53:13.573Z,16.64
2017-10-12T17:55:41.279Z,16.61
2017-10-12T17:58:09.043Z,16.65
2017-10-12T18:00:37.468Z,16.60
2017-10-12T18:03:05.238Z,16.53
2017-10-12T18:05:33.411Z,15.90
2017-10-12T18:08:01.200Z,15.55
2017-10-12T18:10:29.059Z,15.19
2017-10-12T18:12:56.759Z,15.16
2017-10-12T18:15:24.581Z,15.07
2017-10-12T18:17:52.314Z,14.86
2017-10-12T18:20:20.082Z,14.81
2017-10-12T18:22:47.865Z,14.73
2017-10-12T18:25:15.635Z,14.62
2017-10-12T18:27:43.514Z,14.36
2017-10-12T18:30:11.357Z,14.40
2017-10-12T18:32:39.115Z,14.26
2017-10-12T18:35:06.924Z,14.15
2017-10-12T18:37:35.151Z,14.15
2017-10-12T18:40:02.995Z,14.05
2017-10-12T18:42:30.933Z,14.12
2017-10-12T18:44:58.947Z,14.04
2017-10-12T18:47:26.709Z,13.81
2017-10-12T18:52:22.359Z,13.87
2017-10-12T18:54:50.153Z,13.84
2017-10-12T18:57:17.905Z,14.00
2017-10-12T18:59:45.688Z,13.88
2017-10-12T19:02:13.451Z,13.77
2017-10-12T19:04:41.400Z,13.81
2017-10-12T19:07:09.188Z,13.85
2017-10-12T19:09:36.961Z,13.81
2017-10-12T19:12:04.813Z,13.69
2017-10-12T19:14:32.613Z,13.57
2017-10-12T19:17:00.449Z,13.50
2017-10-12T19:19:28.195Z,13.55
2017-10-12T19:21:56.247Z,13.60
2017-10-12T19:24:24.084Z,13.70
2017-10-12T19:26:51.972Z,13.75
2017-10-12T19:29:19.727Z,13.72
2017-10-12T19:31:47.552Z,13.73
2017-10-12T19:34:15.301Z,13.69
2017-10-12T19:36:44.279Z,13.63
2017-10-12T19:39:11.967Z,13.35
2017-10-12T19:44:13.640Z,13.53
2017-10-12T19:46:41.656Z,13.61
2017-10-12T19:49:09.423Z,13.75
2017-10-12T19:51:37.171Z,13.90
2017-10-12T19:54:04.943Z,13.84
2017-10-12T19:56:32.690Z,13.85
2017-10-12T20:01:29.330Z,13.76
2017-10-12T20:03:58.553Z,13.76
2017-10-12T20:06:27.311Z,13.86
2017-10-12T20:08:55.168Z,13.95
2017-10-12T20:11:22.878Z,13.99
2017-10-12T20:14:20.112Z,13.98
2017-10-12T20:16:18.625Z,13.79
2017-10-12T20:21:14.086Z,13.83
2017-10-12T20:23:41.971Z,13.81
2017-10-12T20:26:09.804Z,13.85
2017-10-12T20:28:37.686Z,13.71
2017-10-12T20:31:05.464Z,13.68
2017-10-12T20:33:33.168Z,13.70
2017-10-12T20:36:00.981Z,13.74
2017-10-12T20:38:28.793Z,13.78
2017-10-12T20:40:56.476Z,13.86
2017-10-12T20:43:24.229Z,13.86
2017-10-12T20:45:51.982Z,13.90
2017-10-12T20:48:19.736Z,13.83
2017-10-12T20:50:47.511Z,13.89
2017-10-12T20:53:15.234Z,13.78
2017-10-12T20:55:43.014Z,13.74
2017-10-12T20:58:10.864Z,13.70
2017-10-12T21:00:38.935Z,13.61
2017-10-12T21:03:06.711Z,13.77
2017-10-12T21:08:02.407Z,13.83
2017-10-12T21:10:30.160Z,13.78
2017-10-12T21:12:57.928Z,13.79
2017-10-12T21:15:25.712Z,13.77
2017-10-12T21:17:53.415Z,13.65
2017-10-12T21:20:21.224Z,13.63
2017-10-12T21:22:49.017Z,13.58
2017-10-12T21:25:16.741Z,13.52
2017-10-12T21:27:44.504Z,13.63
2017-10-12T21:30:12.294Z,13.55
2017-10-12T21:35:14.362Z,13.52
2017-10-12T21:37:43.322Z,13.58
2017-10-12T21:40:11.349Z,13.56
2017-10-12T21:42:39.144Z,13.55
2017-10-12T21:45:06.882Z,13.53
2017-10-12T21:47:34.591Z,13.59
2017-10-12T21:50:02.407Z,13.56
2017-10-12T21:52:30.172Z,13.49
2017-10-12T21:54:57.924Z,13.34
2017-10-12T21:57:25.688Z,13.38
2017-10-12T21:59:53.443Z,13.49
2017-10-12T22:02:21.392Z,13.34
2017-10-12T22:04:49.124Z,13.24
2017-10-12T22:07:16.906Z,13.25
2017-10-12T22:09:44.721Z,13.35
2017-10-12T22:12:13.516Z,13.38
2017-10-12T22:14:41.263Z,13.33
2017-10-12T22:17:08.966Z,13.36
2017-10-12T22:19:36.689Z,13.36
2017-10-12T22:22:04.609Z,13.45
2017-10-12T22:24:32.354Z,13.32
2017-10-12T22:27:00.052Z,13.42
2017-10-12T22:29:27.813Z,13.46
2017-10-12T22:31:55.567Z,13.34
2017-10-12T22:34:23.324Z,13.32
2017-10-12T22:36:51.105Z,13.39
2017-10-12T22:39:18.813Z,13.37
2017-10-12T22:41:46.611Z,13.26
2017-10-12T22:44:14.361Z,13.21
2017-10-12T22:46:42.095Z,13.28
2017-10-12T22:49:09.823Z,13.26
2017-10-12T22:51:37.587Z,13.20
2017-10-12T22:54:05.354Z,13.18
2017-10-12T22:56:33.067Z,13.22
2017-10-12T22:59:00.812Z,13.24
2017-10-12T23:01:28.552Z,13.24
2017-10-12T23:03:56.309Z,13.23
2017-10-12T23:06:24.069Z,13.26
2017-10-12T23:08:51.834Z,13.30
2017-10-12T23:11:19.552Z,13.26
2017-10-12T23:13:47.338Z,13.23
2017-10-12T23:16:15.206Z,13.20
2017-10-12T23:18:43.437Z,13.19
2017-10-12T23:21:11.176Z,12.99
2017-10-12T23:23:39.242Z,13.09
2017-10-12T23:26:07.044Z,12.99
2017-10-12T23:28:34.853Z,13.03
2017-10-12T23:31:02.590Z,13.08
2017-10-12T23:33:30.862Z,13.09
2017-10-12T23:35:58.621Z,13.16
2017-10-12T23:38:26.328Z,13.22
2017-10-12T23:40:54.125Z,13.30
2017-10-12T23:43:22.469Z,13.33
2017-10-12T23:45:50.154Z,13.22
2017-10-12T23:48:18.043Z,13.25
2017-10-12T23:50:45.740Z,13.05
2017-10-12T23:53:13.462Z,12.99
2017-10-12T23:55:41.158Z,13.05
2017-10-12T23:58:09.854Z,13.05
